Time;durP1;ratioP1;P1;durP2;ratioP2;P2;SDS_P1;SDS_P2;PMS_P1;PMS_P2;Temp;Humidity;BMP_temperature;BMP_pressure;BME280_temperature;BME280_humidity;BME280_pressure;Samples;Min_cycle;Max_cycle;Signal;HPM_P1;HPM_P2
2023/04/14 00:00:33;;;;;;;10.50;1.90;;;5.70;99.90;;;;;;5069963;28;20044;-48
2023/04/14 00:03:02;;;;;;;9.07;1.75;;;5.60;99.90;;;;;;5069902;28;20032;-49
2023/04/14 00:05:28;;;;;;;7.85;1.63;;;5.50;99.90;;;;;;5070115;28;20098;-50
2023/04/14 00:07:54;;;;;;;9.70;1.90;;;5.50;99.90;;;;;;5069728;28;20041;-48
2023/04/14 00:10:20;;;;;;;10.03;2.70;;;5.40;99.90;;;;;;5069748;28;20028;-47
2023/04/14 00:12:46;;;;;;;14.03;3.73;;;5.30;99.90;;;;;;5069718;28;20074;-52
2023/04/14 00:15:12;;;;;;;9.67;2.27;;;5.30;99.90;;;;;;5072442;28;20076;-48
2023/04/14 00:17:37;;;;;;;8.03;2.07;;;5.30;99.90;;;;;;5071951;28;20071;-53
2023/04/14 00:20:03;;;;;;;9.40;2.10;;;5.20;99.90;;;;;;5073319;28;20044;-53
2023/04/14 00:22:29;;;;;;;9.27;1.87;;;5.10;99.90;;;;;;5073390;28;20085;-49
2023/04/14 00:24:55;;;;;;;8.87;2.00;;;5.10;99.90;;;;;;5072960;28;20123;-52
2023/04/14 00:27:21;;;;;;;10.97;2.30;;;5.10;99.90;;;;;;5073010;28;20041;-54
2023/04/14 00:29:47;;;;;;;12.03;3.17;;;5.10;99.90;;;;;;5071705;28;20032;-52
2023/04/14 00:32:12;;;;;;;12.50;2.17;;;5.10;99.90;;;;;;5073136;28;20529;-54
2023/04/14 00:34:38;;;;;;;8.37;1.60;;;5.00;99.90;;;;;;5071729;28;20164;-49
2023/04/14 00:37:04;;;;;;;7.33;1.67;;;4.90;99.90;;;;;;5071505;28;20036;-51
2023/04/14 00:39:30;;;;;;;13.10;2.20;;;4.90;99.90;;;;;;5071619;28;20028;-51
2023/04/14 00:41:56;;;;;;;10.80;2.10;;;4.80;99.90;;;;;;5071584;28;20032;-53
2023/04/14 00:44:24;;;;;;;6.77;2.30;;;4.70;99.90;;;;;;5071230;28;20569;-49
2023/04/14 00:46:50;;;;;;;13.73;2.30;;;4.70;99.90;;;;;;5072787;28;20032;-51
2023/04/14 00:49:16;;;;;;;8.17;1.60;;;4.70;99.90;;;;;;5072787;28;20128;-51
2023/04/14 00:51:44;;;;;;;8.23;1.70;;;4.60;99.90;;;;;;5073180;28;20048;-51
2023/04/14 00:54:11;;;;;;;9.03;1.67;;;4.60;99.90;;;;;;5072548;28;20370;-50
2023/04/14 00:56:37;;;;;;;8.33;1.80;;;4.60;99.90;;;;;;5071208;28;20117;-50
2023/04/14 00:59:06;;;;;;;6.97;1.70;;;4.60;99.90;;;;;;5071223;28;20032;-52
2023/04/14 01:01:35;;;;;;;9.77;2.03;;;4.60;99.90;;;;;;5072812;28;20449;-52
2023/04/14 01:04:02;;;;;;;7.25;1.83;;;4.60;99.90;;;;;;5072361;28;20039;-53
2023/04/14 01:06:28;;;;;;;5.37;1.67;;;4.60;99.90;;;;;;5070941;28;20033;-52
2023/04/14 01:08:55;;;;;;;9.23;1.80;;;4.60;99.90;;;;;;5071468;28;20102;-50
2023/04/14 01:11:34;;;;;;;12.00;2.10;;;4.50;99.90;;;;;;5072423;28;20397;-48
2023/04/14 01:14:30;;;;;;;11.27;2.17;;;4.40;99.90;;;;;;5072182;28;20047;-54
2023/04/14 01:17:02;;;;;;;13.20;2.50;;;4.40;99.90;;;;;;5072188;28;20024;-50
2023/04/14 01:20:05;;;;;;;5.33;1.90;;;4.40;99.90;;;;;;5070916;28;20029;-52
2023/04/14 01:22:37;;;;;;;10.60;2.00;;;4.40;99.90;;;;;;5070917;28;20028;-53
2023/04/14 01:25:32;;;;;;;9.27;2.67;;;4.50;99.90;;;;;;5056606;22;20053;-51
2023/04/14 01:28:22;;;;;;;11.67;2.33;;;4.50;99.90;;;;;;5030603;28;20302;-55
2023/04/14 01:31:00;;;;;;;7.80;2.13;;;4.50;99.90;;;;;;5030515;28;20033;-55
2023/04/14 01:33:28;;;;;;;8.33;2.33;;;4.40;99.90;;;;;;5030196;28;20029;-54
2023/04/14 01:35:59;;;;;;;16.13;2.00;;;4.40;99.90;;;;;;5030567;28;20035;-52
2023/04/14 01:38:32;;;;;;;8.20;1.73;;;4.40;99.90;;;;;;5031477;28;20042;-51
2023/04/14 01:41:07;;;;;;;9.93;2.43;;;4.30;99.90;;;;;;5030418;28;20069;-53
2023/04/14 01:43:41;;;;;;;8.70;2.03;;;4.30;99.90;;;;;;5030165;28;20033;-50
2023/04/14 01:46:12;;;;;;;9.00;1.80;;;4.20;99.90;;;;;;5031618;28;20034;-54
2023/04/14 01:48:40;;;;;;;8.73;2.13;;;4.20;99.90;;;;;;5031357;28;20025;-55
2023/04/14 01:51:07;;;;;;;10.10;2.60;;;4.20;99.90;;;;;;5031429;28;20397;-53
2023/04/14 01:53:37;;;;;;;7.97;2.57;;;4.20;99.90;;;;;;5029789;28;20413;-55
2023/04/14 01:56:06;;;;;;;8.93;2.27;;;4.20;99.90;;;;;;5030043;28;20124;-53
2023/04/14 01:58:32;;;;;;;8.83;2.23;;;4.20;99.90;;;;;;5031188;28;20064;-52
2023/04/14 02:00:58;;;;;;;9.33;2.13;;;4.20;99.90;;;;;;5029936;28;20040;-54
2023/04/14 02:03:25;;;;;;;8.90;2.07;;;4.20;99.90;;;;;;5029686;28;20036;-55
2023/04/14 02:05:53;;;;;;;8.43;1.93;;;4.20;99.90;;;;;;5029949;28;20037;-53
2023/04/14 02:08:21;;;;;;;10.07;2.50;;;4.20;99.90;;;;;;5030957;28;20064;-56
2023/04/14 02:10:49;;;;;;;8.65;1.95;;;4.10;99.90;;;;;;5029809;28;20025;-53
2023/04/14 02:13:17;;;;;;;7.50;2.30;;;4.20;99.90;;;;;;5031112;28;20436;-53
2023/04/14 02:15:43;;;;;;;9.67;2.00;;;4.10;99.90;;;;;;5029509;28;20025;-55
2023/04/14 02:18:10;;;;;;;7.33;2.00;;;4.00;99.90;;;;;;5029555;28;20082;-52
2023/04/14 02:20:43;;;;;;;9.77;2.00;;;4.10;99.90;;;;;;5031008;28;20397;-55
2023/04/14 02:23:10;;;;;;;7.50;1.80;;;4.00;99.90;;;;;;5030994;28;20398;-52
2023/04/14 02:25:44;;;;;;;7.67;2.10;;;4.00;99.90;;;;;;5030390;28;20099;-55
2023/04/14 02:28:17;;;;;;;10.13;1.93;;;4.00;99.90;;;;;;5030741;28;20120;-56
2023/04/14 02:30:47;;;;;;;7.03;1.90;;;4.00;99.90;;;;;;5030688;28;20033;-54
2023/04/14 02:33:18;;;;;;;7.00;1.90;;;3.90;99.90;;;;;;5029526;28;20117;-52
2023/04/14 02:36:05;;;;;;;7.37;2.10;;;4.00;99.90;;;;;;5029446;28;20099;-53
2023/04/14 02:38:43;;;;;;;7.30;1.90;;;3.90;99.90;;;;;;5029832;28;20042;-51
2023/04/14 02:41:23;;;;;;;8.10;2.13;;;3.90;99.90;;;;;;5029270;28;20034;-54
2023/04/14 02:44:00;;;;;;;9.57;1.93;;;4.00;99.90;;;;;;5028993;28;20041;-53
2023/04/14 02:46:30;;;;;;;6.17;2.00;;;4.00;99.90;;;;;;5028998;28;20036;-51
2023/04/14 02:48:59;;;;;;;6.77;2.20;;;4.00;99.90;;;;;;5029127;28;20025;-52
2023/04/14 02:51:27;;;;;;;10.38;2.15;;;4.10;99.90;;;;;;5029112;28;20037;-50
2023/04/14 02:53:53;;;;;;;13.33;2.60;;;4.10;99.90;;;;;;5030170;28;20025;-52
2023/04/14 02:56:36;;;;;;;10.33;2.47;;;4.20;99.90;;;;;;5028987;28;20374;-53
2023/04/14 02:59:03;;;;;;;10.37;2.27;;;4.20;99.90;;;;;;5029157;28;20032;-53
2023/04/14 03:01:31;;;;;;;10.97;2.20;;;4.20;99.90;;;;;;5029082;28;20029;-54
2023/04/14 03:03:59;;;;;;;8.13;2.20;;;4.30;99.90;;;;;;5028673;28;20045;-55
2023/04/14 03:06:27;;;;;;;11.17;3.10;;;4.30;99.90;;;;;;5028824;28;20025;-51
2023/04/14 03:08:55;;;;;;;9.50;2.87;;;4.30;99.90;;;;;;5030307;28;20370;-53
2023/04/14 03:11:23;;;;;;;7.50;2.03;;;4.30;99.90;;;;;;5028948;28;20028;-55
2023/04/14 03:13:53;;;;;;;8.43;2.40;;;4.30;99.90;;;;;;5028727;28;20458;-53
2023/04/14 03:16:20;;;;;;;7.53;2.27;;;4.30;99.90;;;;;;5028771;28;20037;-53
2023/04/14 03:18:51;;;;;;;9.67;2.17;;;4.30;99.90;;;;;;5028867;28;20034;-53
2023/04/14 03:21:19;;;;;;;8.23;2.57;;;4.10;99.90;;;;;;5028913;28;20567;-55
2023/04/14 03:23:47;;;;;;;8.07;2.30;;;4.00;99.90;;;;;;5028409;28;20034;-52
2023/04/14 03:26:17;;;;;;;8.90;2.53;;;4.00;99.90;;;;;;5028733;28;20530;-53
2023/04/14 03:28:47;;;;;;;9.40;2.57;;;3.90;99.90;;;;;;5028948;28;20367;-51
2023/04/14 03:31:15;;;;;;;;;;;4.00;99.90;;;;;;5029327;28;20041;-54
2023/04/14 03:33:55;;;;;;;6.57;2.23;;;3.90;99.90;;;;;;5028495;28;19916;-51
2023/04/14 03:36:24;;;;;;;10.63;2.73;;;3.90;99.90;;;;;;5028707;28;20124;-50
2023/04/14 03:38:54;;;;;;;11.43;2.67;;;3.90;99.90;;;;;;5028755;28;20425;-52
2023/04/14 03:41:23;;;;;;;10.52;2.65;;;3.90;99.90;;;;;;5028645;28;20029;-54
2023/04/14 03:43:53;;;;;;;8.33;2.60;;;3.90;99.90;;;;;;5029966;28;20072;-56
2023/04/14 03:46:20;;;;;;;8.80;2.70;;;3.90;99.90;;;;;;5028491;28;20034;-54
2023/04/14 03:48:49;;;;;;;9.63;2.73;;;3.90;99.90;;;;;;5029440;28;20029;-52
2023/04/14 03:51:16;;;;;;;;;;;3.80;99.90;;;;;;5032961;28;20032;-51
2023/04/14 03:53:45;;;;;;;8.40;2.80;;;3.80;99.90;;;;;;5032078;28;19945;-50
2023/04/14 03:56:12;;;;;;;10.38;2.95;;;3.80;99.90;;;;;;5032367;28;20044;-51
2023/04/14 03:58:40;;;;;;;10.37;2.87;;;3.70;99.90;;;;;;5032028;28;20090;-53
2023/04/14 04:01:07;;;;;;;7.77;3.07;;;3.70;99.90;;;;;;5032183;28;20036;-53
2023/04/14 04:03:35;;;;;;;6.53;2.53;;;3.70;99.90;;;;;;5031937;28;20409;-52
2023/04/14 04:06:03;;;;;;;11.20;2.70;;;3.60;99.90;;;;;;5033273;28;20403;-54
2023/04/14 04:08:31;;;;;;;10.57;2.47;;;3.50;99.90;;;;;;5033087;28;20390;-52
2023/04/14 04:10:59;;;;;;;10.90;3.13;;;3.50;99.90;;;;;;5032036;28;20129;-54
2023/04/14 04:13:26;;;;;;;11.25;3.20;;;3.40;99.90;;;;;;5032326;28;20053;-54
2023/04/14 04:15:54;;;;;;;9.77;2.83;;;3.40;99.90;;;;;;5031940;28;20068;-55
2023/04/14 04:18:24;;;;;;;13.03;3.60;;;3.40;99.90;;;;;;5031790;28;20116;-53
2023/04/14 04:20:51;;;;;;;;;;;3.40;99.90;;;;;;5033614;28;20030;-55
2023/04/14 04:23:17;;;;;;;11.80;3.43;;;3.40;99.90;;;;;;5032091;28;20192;-54
2023/04/14 04:25:43;;;;;;;11.67;3.70;;;3.40;99.90;;;;;;5031638;28;20040;-54
2023/04/14 04:28:32;;;;;;;12.90;4.00;;;3.40;99.90;;;;;;5032656;28;20041;-53
2023/04/14 04:30:59;;;;;;;12.67;3.70;;;3.40;99.90;;;;;;5031854;28;20544;-53
2023/04/14 04:33:28;;;;;;;15.43;3.77;;;3.50;99.90;;;;;;5031281;28;20036;-50
2023/04/14 04:35:56;;;;;;;10.30;3.35;;;3.40;99.90;;;;;;5031579;28;20065;-54
2023/04/14 04:38:27;;;;;;;8.27;3.73;;;3.40;99.90;;;;;;5031449;28;20052;-55
2023/04/14 04:40:53;;;;;;;10.67;3.27;;;3.40;99.90;;;;;;5031519;28;20498;-52
2023/04/14 04:43:25;;;;;;;13.30;3.47;;;3.40;99.90;;;;;;5031301;28;20075;-51
2023/04/14 04:45:57;;;;;;;15.23;4.57;;;3.50;99.90;;;;;;5032524;28;20429;-52
2023/04/14 04:48:24;;;;;;;10.13;4.40;;;3.40;99.90;;;;;;5031215;28;20029;-51
2023/04/14 04:50:50;;;;;;;13.43;4.40;;;3.50;99.90;;;;;;5031199;28;20037;-52
2023/04/14 04:53:17;;;;;;;12.47;4.20;;;3.40;99.90;;;;;;5031284;28;20052;-53
2023/04/14 04:55:42;;;;;;;13.23;4.37;;;3.50;99.90;;;;;;5031157;28;20034;-52
2023/04/14 04:58:08;;;;;;;10.27;4.10;;;3.40;99.90;;;;;;5032714;28;20034;-49
2023/04/14 05:00:34;;;;;;;13.30;4.93;;;3.50;99.90;;;;;;5032282;28;20656;-54
2023/04/14 05:03:00;;;;;;;14.13;5.20;;;3.50;99.90;;;;;;5032470;28;20021;-55
2023/04/14 05:05:26;;;;;;;15.87;6.20;;;3.50;99.90;;;;;;5032080;28;20414;-54
2023/04/14 05:07:52;;;;;;;16.23;6.13;;;3.60;99.90;;;;;;5032227;28;20056;-56
2023/04/14 05:10:17;;;;;;;13.90;6.43;;;3.70;99.90;;;;;;5032159;28;20041;-54
2023/04/14 05:12:43;;;;;;;15.23;6.07;;;3.80;99.90;;;;;;5032236;28;20025;-56
2023/04/14 05:15:09;;;;;;;13.17;6.50;;;3.90;99.90;;;;;;5031818;28;20293;-52
2023/04/14 05:17:36;;;;;;;16.93;6.57;;;3.90;99.90;;;;;;5031994;28;20513;-54
2023/04/14 05:20:04;;;;;;;12.87;6.13;;;3.80;99.90;;;;;;5032050;28;20038;-55
2023/04/14 05:22:31;;;;;;;13.63;6.70;;;3.90;99.90;;;;;;5032153;28;20037;-53
2023/04/14 05:24:57;;;;;;;19.37;7.10;;;4.00;99.90;;;;;;5031666;28;20048;-54
2023/04/14 05:27:22;;;;;;;14.97;6.70;;;4.00;99.90;;;;;;5031728;28;20033;-55
2023/04/14 05:29:48;;;;;;;14.23;6.33;;;3.90;99.90;;;;;;5031768;28;20025;-52
2023/04/14 05:32:14;;;;;;;15.10;6.53;;;3.90;99.90;;;;;;5031783;28;20087;-52
2023/04/14 05:34:40;;;;;;;15.00;6.83;;;4.00;99.90;;;;;;5031462;28;20034;-56
2023/04/14 05:37:06;;;;;;;17.87;6.27;;;4.20;99.90;;;;;;5031650;28;20037;-53
2023/04/14 05:39:32;;;;;;;13.83;6.13;;;4.30;99.90;;;;;;5032271;28;20034;-55
2023/04/14 05:42:00;;;;;;;12.13;5.60;;;4.50;99.90;;;;;;5031642;28;20052;-53
2023/04/14 05:44:26;;;;;;;14.27;6.13;;;4.70;99.90;;;;;;5031372;28;20083;-53
2023/04/14 05:46:52;;;;;;;15.27;5.53;;;4.90;99.90;;;;;;5031262;28;20029;-54
2023/04/14 05:49:18;;;;;;;12.50;5.87;;;5.00;99.90;;;;;;5031391;28;20108;-52
2023/04/14 05:51:43;;;;;;;10.60;5.47;;;5.10;99.90;;;;;;5031492;28;20537;-53
2023/04/14 05:54:09;;;;;;;10.87;5.37;;;5.50;99.90;;;;;;5031044;28;20478;-53
2023/04/14 05:56:35;;;;;;;13.63;5.37;;;5.90;99.90;;;;;;5031183;28;20041;-52
2023/04/14 05:59:00;;;;;;;12.70;5.70;;;6.10;99.90;;;;;;5031197;28;20037;-53
2023/04/14 06:01:27;;;;;;;17.80;5.93;;;6.30;99.90;;;;;;5031562;28;20029;-54
2023/04/14 06:03:52;;;;;;;12.60;5.00;;;6.50;99.90;;;;;;5031219;28;20033;-53
2023/04/14 06:06:21;;;;;;;14.97;5.60;;;6.60;99.90;;;;;;5031252;28;20176;-50
2023/04/14 06:08:46;;;;;;;10.90;4.90;;;6.80;99.90;;;;;;5031185;28;20036;-54
2023/04/14 06:11:13;;;;;;;13.43;5.27;;;7.00;99.90;;;;;;5030556;28;20033;-55
2023/04/14 06:13:39;;;;;;;13.27;5.60;;;7.10;99.90;;;;;;5030978;28;20120;-53
2023/04/14 06:16:05;;;;;;;12.73;4.93;;;7.30;99.90;;;;;;5030999;28;20401;-50
2023/04/14 06:18:31;;;;;;;13.30;4.57;;;7.50;99.90;;;;;;5030911;28;20041;-54
2023/04/14 06:20:56;;;;;;;20.43;6.10;;;7.70;99.90;;;;;;5030922;28;20033;-54
2023/04/14 06:23:23;;;;;;;12.10;4.87;;;7.70;99.90;;;;;;5030616;28;20060;-52
2023/04/14 06:25:51;;;;;;;16.07;5.67;;;7.80;99.90;;;;;;5030596;28;20037;-51
2023/04/14 06:28:17;;;;;;;12.70;4.27;;;7.90;99.90;;;;;;5030867;28;20406;-53
2023/04/14 06:30:43;;;;;;;16.13;3.93;;;8.30;99.90;;;;;;5030757;28;20025;-51
2023/04/14 06:33:09;;;;;;;11.00;4.00;;;8.60;99.90;;;;;;5030756;28;20029;-52
2023/04/14 06:35:35;;;;;;;6.60;3.53;;;8.80;99.90;;;;;;5030351;28;20033;-51
2023/04/14 06:38:01;;;;;;;9.63;3.50;;;8.70;99.90;;;;;;5030533;28;20045;-55
2023/04/14 06:40:27;;;;;;;10.67;3.63;;;8.60;99.90;;;;;;5030442;28;20478;-55
2023/04/14 06:42:53;;;;;;;8.60;3.23;;;8.60;99.90;;;;;;5030557;28;20040;-56
2023/04/14 06:45:18;;;;;;;11.50;3.60;;;8.60;99.90;;;;;;5030202;28;20028;-55
2023/04/14 06:47:44;;;;;;;7.00;3.13;;;8.70;99.90;;;;;;5030406;28;20017;-54
2023/04/14 06:50:11;;;;;;;6.33;2.93;;;8.70;99.90;;;;;;5030492;28;20482;-55
2023/04/14 06:52:37;;;;;;;11.90;3.40;;;8.80;99.90;;;;;;5030577;28;20394;-54
2023/04/14 06:55:02;;;;;;;10.67;3.40;;;8.80;99.90;;;;;;5028583;28;20026;-55
2023/04/14 06:57:28;;;;;;;11.73;3.20;;;9.10;99.90;;;;;;5030118;28;20171;-56
2023/04/14 06:59:55;;;;;;;9.13;2.90;;;9.20;99.90;;;;;;5030354;28;20041;-55
2023/04/14 07:02:21;;;;;;;11.57;3.10;;;9.40;99.90;;;;;;5030433;28;20041;-54
2023/04/14 07:04:46;;;;;;;11.07;3.27;;;9.40;99.90;;;;;;5030102;28;20034;-56
2023/04/14 07:07:13;;;;;;;11.20;2.93;;;9.50;99.90;;;;;;5030355;28;20041;-55
2023/04/14 07:09:41;;;;;;;6.67;2.40;;;9.60;99.90;;;;;;5030231;28;20466;-54
2023/04/14 07:12:12;;;;;;;8.67;3.13;;;9.80;99.90;;;;;;5030420;28;20021;-52
2023/04/14 07:14:39;;;;;;;9.03;2.87;;;10.00;99.90;;;;;;5030043;28;20118;-56
2023/04/14 07:17:05;;;;;;;12.27;3.30;;;10.10;99.90;;;;;;5030032;28;20076;-57
2023/04/14 07:19:31;;;;;;;10.43;2.83;;;10.30;99.90;;;;;;5030117;28;20135;-53
2023/04/14 07:21:57;;;;;;;10.50;2.47;;;10.40;99.90;;;;;;5030182;28;20042;-56
2023/04/14 07:24:23;;;;;;;7.63;2.87;;;10.50;99.90;;;;;;5031700;28;20047;-53
2023/04/14 07:26:48;;;;;;;11.93;4.80;;;10.60;99.90;;;;;;5034003;28;20038;-56
2023/04/14 07:29:14;;;;;;;11.17;3.13;;;10.80;99.90;;;;;;5034081;28;20056;-53
2023/04/14 07:31:40;;;;;;;9.93;3.70;;;10.80;99.90;;;;;;5034233;28;20114;-56
2023/04/14 07:34:06;;;;;;;9.80;3.20;;;11.10;99.90;;;;;;5033781;28;20088;-55
2023/04/14 07:36:32;;;;;;;8.52;3.10;;;11.30;99.90;;;;;;5033881;28;20064;-56
2023/04/14 07:38:58;;;;;;;7.55;2.78;;;11.50;99.90;;;;;;5033832;28;20486;-54
2023/04/14 07:41:25;;;;;;;7.53;2.40;;;11.80;99.90;;;;;;5033943;28;20079;-54
2023/04/14 07:43:54;;;;;;;8.20;2.65;;;12.00;99.90;;;;;;5033746;28;20037;-55
2023/04/14 07:46:20;;;;;;;8.35;2.47;;;12.20;99.90;;;;;;5033620;28;20482;-54
2023/04/14 07:48:46;;;;;;;9.75;2.65;;;12.60;99.90;;;;;;5033815;28;20032;-56
2023/04/14 07:51:12;;;;;;;10.88;2.50;;;12.90;99.90;;;;;;5033624;28;20550;-54
2023/04/14 07:53:42;;;;;;;7.60;3.00;;;12.70;99.90;;;;;;5033406;28;20029;-56
2023/04/14 07:56:08;;;;;;;10.27;2.53;;;12.70;99.90;;;;;;5033723;28;20103;-56
2023/04/14 07:58:34;;;;;;;6.70;2.53;;;12.80;99.90;;;;;;5033493;28;20057;-53
2023/04/14 08:00:59;;;;;;;9.02;2.88;;;13.00;99.90;;;;;;5033506;28;20065;-54
2023/04/14 08:03:25;;;;;;;10.02;2.90;;;12.90;99.90;;;;;;5033247;28;20029;-55
2023/04/14 08:05:51;;;;;;;9.95;2.42;;;12.80;99.90;;;;;;5033158;28;20453;-53
2023/04/14 08:08:17;;;;;;;8.32;3.08;;;13.00;99.90;;;;;;5032023;28;20037;-56
2023/04/14 08:10:42;;;;;;;7.63;2.63;;;13.10;99.90;;;;;;5033432;28;20033;-56
2023/04/14 08:13:08;;;;;;;9.60;2.63;;;13.40;99.90;;;;;;5033268;28;20037;-56
2023/04/14 08:15:34;;;;;;;8.48;2.88;;;13.50;99.80;;;;;;5033034;28;20450;-56
2023/04/14 08:18:00;;;;;;;6.88;2.30;;;13.80;99.60;;;;;;5033060;28;20032;-57
2023/04/14 08:20:26;;;;;;;8.85;2.60;;;14.10;99.90;;;;;;5033103;28;20451;-57
2023/04/14 08:22:52;;;;;;;8.25;2.55;;;14.40;98.40;;;;;;5033324;28;20518;-56
2023/04/14 08:25:17;;;;;;;14.82;2.63;;;14.40;97.80;;;;;;5032731;28;20481;-54
2023/04/14 08:27:43;;;;;;;10.32;2.72;;;14.30;97.30;;;;;;5033134;28;20091;-56
2023/04/14 08:30:10;;;;;;;6.07;1.95;;;14.10;97.70;;;;;;5033039;28;20117;-53
2023/04/14 08:32:35;;;;;;;10.48;2.53;;;13.90;98.50;;;;;;5033041;28;20418;-55
2023/04/14 08:35:01;;;;;;;6.70;2.20;;;13.60;98.60;;;;;;5032214;28;20056;-57
2023/04/14 08:37:27;;;;;;;8.85;2.78;;;13.70;98.30;;;;;;5032557;28;20044;-52
2023/04/14 08:39:53;;;;;;;7.68;2.97;;;13.80;98.70;;;;;;5032910;28;20037;-56
2023/04/14 08:42:19;;;;;;;8.82;2.30;;;13.80;98.20;;;;;;5032861;28;20076;-55
2023/04/14 08:44:46;;;;;;;7.18;2.17;;;13.70;98.60;;;;;;5032469;28;20441;-55
2023/04/14 08:47:13;;;;;;;6.75;2.13;;;13.70;97.80;;;;;;5032583;28;20492;-56
2023/04/14 08:49:44;;;;;;;7.75;2.03;;;13.70;96.70;;;;;;5032581;28;20350;-56
2023/04/14 08:52:11;;;;;;;9.05;1.70;;;13.70;97.30;;;;;;5032757;28;20029;-55
2023/04/14 08:54:40;;;;;;;11.30;2.40;;;13.80;95.60;;;;;;5032405;28;20057;-54
2023/04/14 08:57:11;;;;;;;10.80;3.13;;;13.80;96.40;;;;;;5032657;28;20112;-54
2023/04/14 08:59:37;;;;;;;8.10;1.90;;;13.80;96.70;;;;;;5032421;28;20037;-55
2023/04/14 09:02:05;;;;;;;8.57;2.00;;;13.90;96.20;;;;;;5032430;28;20030;-55
2023/04/14 09:04:32;;;;;;;11.52;2.28;;;13.90;97.60;;;;;;5032377;28;20034;-56
2023/04/14 09:06:58;;;;;;;9.82;1.90;;;14.10;96.40;;;;;;5032148;28;20033;-53
2023/04/14 09:09:24;;;;;;;9.13;2.67;;;14.40;95.30;;;;;;5032271;28;20068;-56
2023/04/14 09:11:51;;;;;;;9.30;1.90;;;14.60;94.40;;;;;;5032338;28;20097;-56
2023/04/14 09:14:18;;;;;;;6.60;1.65;;;14.60;94.50;;;;;;5031892;28;20029;-56
2023/04/14 09:16:47;;;;;;;8.35;1.92;;;14.60;93.20;;;;;;5032019;28;20037;-56
2023/04/14 09:19:14;;;;;;;9.18;1.77;;;14.50;95.10;;;;;;5032045;28;20040;-56
2023/04/14 09:21:41;;;;;;;9.30;1.80;;;14.70;92.80;;;;;;5032182;28;20029;-54
2023/04/14 09:24:07;;;;;;;7.57;1.83;;;14.80;93.20;;;;;;5031653;28;20033;-55
2023/04/14 09:26:33;;;;;;;8.32;2.15;;;14.90;92.30;;;;;;5032018;28;20124;-51
2023/04/14 09:28:59;;;;;;;8.75;2.00;;;15.00;92.30;;;;;;5031922;28;20112;-55
2023/04/14 09:31:25;;;;;;;7.78;2.50;;;15.00;91.50;;;;;;5032268;28;20412;-54
2023/04/14 09:33:52;;;;;;;6.80;1.90;;;15.10;91.20;;;;;;5031797;28;20033;-54
2023/04/14 09:36:25;;;;;;;11.18;2.30;;;15.10;91.30;;;;;;5031797;28;20155;-54
2023/04/14 09:38:51;;;;;;;10.45;2.30;;;15.10;91.00;;;;;;5031939;28;20156;-56
2023/04/14 09:41:24;;;;;;;6.28;1.88;;;15.10;89.50;;;;;;5031700;28;20049;-56
2023/04/14 09:43:54;;;;;;;8.05;1.98;;;15.60;91.90;;;;;;5031423;28;20057;-56
2023/04/14 09:46:20;;;;;;;6.65;1.63;;;16.00;90.50;;;;;;5030529;28;20044;-55
2023/04/14 09:48:52;;;;;;;9.00;2.75;;;16.30;90.10;;;;;;5031661;28;20029;-56
2023/04/14 09:51:27;;;;;;;9.15;2.30;;;16.70;83.30;;;;;;5031590;28;20080;-56
2023/04/14 09:53:53;;;;;;;6.28;1.67;;;16.50;80.40;;;;;;5031367;28;20108;-55
2023/04/14 09:56:24;;;;;;;8.32;1.90;;;16.30;83.90;;;;;;5031279;28;20033;-57
2023/04/14 09:58:50;;;;;;;7.88;1.92;;;16.30;82.00;;;;;;5031481;28;20034;-57
2023/04/14 10:01:20;;;;;;;7.97;2.20;;;16.50;83.30;;;;;;5031632;28;20178;-56
2023/04/14 10:03:47;;;;;;;10.27;1.52;;;16.70;82.00;;;;;;5031429;28;20444;-56
2023/04/14 10:06:21;;;;;;;7.40;1.70;;;17.10;83.20;;;;;;5031203;28;20486;-56
2023/04/14 10:08:51;;;;;;;9.82;2.00;;;17.30;79.00;;;;;;5031103;28;20034;-56
2023/04/14 10:11:21;;;;;;;6.50;2.10;;;17.90;78.50;;;;;;5031422;28;20041;-57
2023/04/14 10:13:55;;;;;;;6.65;1.95;;;18.70;72.50;;;;;;5031075;28;20032;-56
2023/04/14 10:16:22;;;;;;;6.38;2.20;;;19.00;73.40;;;;;;5030995;28;20645;-56
2023/04/14 10:18:48;;;;;;;6.22;1.90;;;19.60;66.10;;;;;;5031124;28;20030;-54
2023/04/14 10:21:15;;;;;;;6.85;1.92;;;19.50;65.50;;;;;;5031155;28;20029;-57
2023/04/14 10:23:42;;;;;;;5.55;1.75;;;19.80;63.60;;;;;;5030958;28;20113;-58
2023/04/14 10:26:10;;;;;;;8.50;1.58;;;19.40;65.40;;;;;;5031071;28;20037;-57
2023/04/14 10:28:57;;;;;;;6.88;2.10;;;20.20;61.70;;;;;;5030833;28;20302;-57
2023/04/14 10:31:28;;;;;;;7.38;2.08;;;19.80;59.90;;;;;;5031204;28;20408;-57
2023/04/14 10:33:54;;;;;;;8.05;2.03;;;19.10;63.00;;;;;;5030742;28;20053;-57
2023/04/14 10:36:24;;;;;;;6.28;1.50;;;19.10;63.70;;;;;;5030778;28;20037;-57
2023/04/14 10:39:04;;;;;;;5.90;1.60;;;18.90;61.40;;;;;;5030922;28;20052;-56
2023/04/14 10:41:41;;;;;;;6.30;1.85;;;18.70;63.50;;;;;;5030841;28;20043;-57
2023/04/14 10:44:39;;;;;;;8.27;2.00;;;19.00;63.60;;;;;;5030542;28;20398;-57
2023/04/14 10:47:08;;;;;;;6.65;1.83;;;18.80;62.10;;;;;;5007744;28;20903;-58
2023/04/14 10:49:38;;;;;;;6.30;1.90;;;19.00;61.10;;;;;;5030637;28;20098;-58
2023/04/14 10:52:11;;;;;;;6.32;1.65;;;19.50;63.90;;;;;;5030847;28;20112;-56
2023/04/14 10:54:52;;;;;;;4.40;1.30;;;19.60;58.40;;;;;;5030448;28;20056;-54
2023/04/14 10:57:22;;;;;;;5.75;1.58;;;19.70;54.50;;;;;;5030611;28;20136;-57
2023/04/14 10:59:48;;;;;;;4.75;1.50;;;19.50;56.20;;;;;;5030568;28;20501;-57
2023/04/14 11:02:26;;;;;;;6.45;1.70;;;19.60;55.80;;;;;;5030794;28;20037;-58
2023/04/14 11:05:07;;;;;;;4.60;1.35;;;19.90;55.80;;;;;;5030398;28;20034;-56
2023/04/14 11:07:43;;;;;;;4.97;1.30;;;19.50;56.90;;;;;;5030551;28;20029;-55
2023/04/14 11:10:18;;;;;;;17.23;2.45;;;19.10;58.20;;;;;;5030577;28;20025;-55
2023/04/14 11:12:45;;;;;;;5.75;1.40;;;19.50;57.80;;;;;;5030681;28;20030;-56
2023/04/14 11:15:11;;;;;;;4.72;1.13;;;19.90;53.50;;;;;;5030445;28;20470;-56
2023/04/14 11:17:38;;;;;;;5.07;1.30;;;20.40;52.60;;;;;;5030275;28;20057;-56
2023/04/14 11:20:21;;;;;;;5.22;1.58;;;20.10;53.00;;;;;;5030676;28;20041;-55
2023/04/14 11:22:49;;;;;;;5.40;1.10;;;20.00;52.90;;;;;;5030597;28;20054;-56
2023/04/14 11:25:17;;;;;;;4.95;1.48;;;20.30;51.10;;;;;;5030102;28;20109;-56
2023/04/14 11:27:44;;;;;;;3.20;1.00;;;20.80;49.60;;;;;;5030233;28;20120;-56
2023/04/14 11:30:16;;;;;;;4.68;1.17;;;20.70;48.20;;;;;;5030364;28;20501;-56
2023/04/14 11:32:49;;;;;;;7.07;1.50;;;20.70;49.40;;;;;;5030650;28;20040;-56
2023/04/14 11:35:16;;;;;;;5.28;1.27;;;20.50;51.80;;;;;;5030129;28;20034;-55
2023/04/14 11:37:42;;;;;;;6.72;1.00;;;20.60;53.20;;;;;;5030446;28;20033;-57
2023/04/14 11:40:12;;;;;;;3.42;0.85;;;20.50;48.20;;;;;;5030245;28;20033;-56
2023/04/14 11:42:45;;;;;;;3.47;1.10;;;19.90;48.10;;;;;;5030224;28;20481;-55
2023/04/14 11:45:14;;;;;;;6.05;1.65;;;19.40;49.00;;;;;;5030063;28;20037;-56
2023/04/14 11:48:07;;;;;;;4.55;1.30;;;19.00;51.10;;;;;;5029902;28;20121;-56
2023/04/14 11:50:41;;;;;;;6.40;1.35;;;18.70;51.10;;;;;;5028427;28;20038;-55
2023/04/14 11:53:09;;;;;;;4.22;1.38;;;18.10;52.90;;;;;;5030084;28;20084;-54
2023/04/14 11:55:35;;;;;;;3.65;1.38;;;17.70;55.80;;;;;;5029852;28;20091;-56
2023/04/14 11:58:02;;;;;;;3.40;1.25;;;17.50;55.10;;;;;;5029845;28;20034;-56
2023/04/14 12:00:29;;;;;;;4.15;1.52;;;17.50;55.50;;;;;;5029919;28;20482;-56
2023/04/14 12:02:55;;;;;;;4.65;1.20;;;17.90;55.70;;;;;;5030031;28;20402;-57
2023/04/14 12:05:29;;;;;;;7.38;1.38;;;18.10;53.20;;;;;;5029707;28;20026;-56
2023/04/14 12:08:04;;;;;;;5.55;1.73;;;18.10;53.90;;;;;;5029796;28;20033;-56
2023/04/14 12:10:30;;;;;;;6.63;1.25;;;18.30;54.60;;;;;;5031692;28;20029;-55
2023/04/14 12:13:03;;;;;;;3.72;1.23;;;18.00;53.80;;;;;;5033563;28;20032;-55
2023/04/14 12:15:31;;;;;;;3.80;1.30;;;17.90;53.40;;;;;;5033160;28;20111;-56
2023/04/14 12:17:58;;;;;;;4.15;1.10;;;18.00;54.20;;;;;;5033669;28;20037;-55
2023/04/14 12:20:25;;;;;;;5.30;1.35;;;18.20;52.30;;;;;;5033262;28;20061;-55
2023/04/14 12:22:51;;;;;;;4.75;1.30;;;18.10;50.60;;;;;;5033530;28;20030;-56
2023/04/14 12:25:18;;;;;;;6.32;1.65;;;18.10;52.30;;;;;;5033067;28;20107;-53
2023/04/14 12:27:51;;;;;;;4.05;1.13;;;18.10;53.40;;;;;;5033023;28;20040;-52
2023/04/14 12:30:21;;;;;;;4.53;1.15;;;18.10;53.50;;;;;;5033349;28;20118;-53
2023/04/14 12:32:46;;;;;;;3.90;1.08;;;17.90;54.90;;;;;;5033156;28;20025;-56
2023/04/14 12:35:12;;;;;;;3.65;1.20;;;18.20;56.00;;;;;;5033004;28;20048;-53
2023/04/14 12:37:40;;;;;;;4.72;1.45;;;18.10;52.80;;;;;;5032998;28;20037;-56
2023/04/14 12:40:06;;;;;;;5.82;1.63;;;17.80;53.10;;;;;;5032950;28;20037;-56
2023/04/14 12:42:50;;;;;;;4.25;1.20;;;17.60;53.80;;;;;;5032901;28;20537;-55
2023/04/14 12:45:16;;;;;;;5.32;1.40;;;17.10;55.70;;;;;;5032685;28;20037;-54
2023/04/14 12:47:53;;;;;;;3.78;1.08;;;16.80;56.90;;;;;;5032563;28;20095;-56
2023/04/14 12:50:26;;;;;;;6.55;1.25;;;16.50;58.80;;;;;;5032876;28;20041;-56
2023/04/14 12:52:53;;;;;;;6.65;1.38;;;16.80;58.70;;;;;;5032836;28;20022;-57
2023/04/14 12:55:21;;;;;;;5.47;1.50;;;16.90;59.60;;;;;;5032330;28;20104;-54
2023/04/14 12:57:49;;;;;;;10.65;1.77;;;17.30;59.50;;;;;;5032392;28;20342;-54